Thule Air Base, Greenland
Current Conditions -  °F | °C
As of 7:35 AM on Sunday 21 Dec 2014 (Local Time) from BGTL Reporting Station
Haze Haze  
Wind Chill: -18°   Ceiling: 1900
Heat Index: -4°   Visibility: 5mi
Dew Point: -11°   Wind: 7mph
Humidity: 71%   Direction: 80°E
Pressure: 29.77"   Gusts: NA
Location:  76.53°N, 68.7°W
Report Text: BGTL 211035Z AUTO 08006KT 8000 HZ BKN019 M20/M24 A2977 RMK AO2 BKN V OVC
Loading
Personal Weather Stations






























Interactive Weather Map New forecast layout! Learn more

10-Day Weather Forecast

Advertisements
Track Severe Weather on mobile